sensor_id;sensor_type;location;lat;lon;timestamp;P1;durP1;ratioP1;P2;durP2;ratioP2
70951;SDS011;69214;55.880;37.542;2023-11-18T00:01:09;0.30;;;0.10;;
70951;SDS011;69214;55.880;37.542;2023-11-18T00:03:35;1.25;;;0.10;;
70951;SDS011;69214;55.880;37.542;2023-11-18T00:06:00;0.30;;;0.10;;
70951;SDS011;69214;55.880;37.542;2023-11-18T00:08:26;1.15;;;0.30;;
70951;SDS011;69214;55.880;37.542;2023-11-18T00:10:52;0.53;;;0.00;;
70951;SDS011;69214;55.880;37.542;2023-11-18T00:13:18;0.50;;;0.10;;
70951;SDS011;69214;55.880;37.542;2023-11-18T00:15:44;0.52;;;0.20;;
70951;SDS011;69214;55.880;37.542;2023-11-18T00:18:11;1.02;;;0.20;;
70951;SDS011;69214;55.880;37.542;2023-11-18T00:20:37;1.60;;;0.10;;
70951;SDS011;69214;55.880;37.542;2023-11-18T00:23:03;0.40;;;0.10;;
70951;SDS011;69214;55.880;37.542;2023-11-18T00:25:31;0.90;;;0.10;;
70951;SDS011;69214;55.880;37.542;2023-11-18T00:27:59;0.95;;;0.20;;
70951;SDS011;69214;55.880;37.542;2023-11-18T00:30:25;0.87;;;0.10;;
70951;SDS011;69214;55.880;37.542;2023-11-18T00:32:50;0.63;;;0.15;;
70951;SDS011;69214;55.880;37.542;2023-11-18T00:35:17;0.20;;;0.03;;
70951;SDS011;69214;55.880;37.542;2023-11-18T00:37:43;0.00;;;0.00;;
70951;SDS011;69214;55.880;37.542;2023-11-18T00:40:10;0.57;;;0.10;;
70951;SDS011;69214;55.880;37.542;2023-11-18T00:42:37;0.20;;;0.00;;
70951;SDS011;69214;55.880;37.542;2023-11-18T00:45:04;0.35;;;0.10;;
70951;SDS011;69214;55.880;37.542;2023-11-18T00:47:32;0.75;;;0.10;;
70951;SDS011;69214;55.880;37.542;2023-11-18T00:49:58;0.17;;;0.00;;
70951;SDS011;69214;55.880;37.542;2023-11-18T00:52:32;0.30;;;0.00;;
70951;SDS011;69214;55.880;37.542;2023-11-18T00:54:58;0.45;;;0.10;;
70951;SDS011;69214;55.880;37.542;2023-11-18T00:57:24;0.37;;;0.00;;
70951;SDS011;69214;55.880;37.542;2023-11-18T00:59:49;0.30;;;0.10;;
70951;SDS011;69214;55.880;37.542;2023-11-18T01:02:15;0.88;;;0.08;;
70951;SDS011;69214;55.880;37.542;2023-11-18T01:04:44;0.63;;;0.27;;
70951;SDS011;69214;55.880;37.542;2023-11-18T01:07:11;0.60;;;0.15;;
70951;SDS011;69214;55.880;37.542;2023-11-18T01:09:37;0.25;;;0.05;;
70951;SDS011;69214;55.880;37.542;2023-11-18T01:12:04;0.20;;;0.00;;
70951;SDS011;69214;55.880;37.542;2023-11-18T01:14:36;1.40;;;0.10;;
70951;SDS011;69214;55.880;37.542;2023-11-18T01:17:04;2.13;;;0.13;;
70951;SDS011;69214;55.880;37.542;2023-11-18T01:19:31;0.55;;;0.08;;
70951;SDS011;69214;55.880;37.542;2023-11-18T01:21:57;1.27;;;0.28;;
70951;SDS011;69214;55.880;37.542;2023-11-18T01:24:23;0.50;;;0.10;;
70951;SDS011;69214;55.880;37.542;2023-11-18T01:26:49;0.20;;;0.10;;
70951;SDS011;69214;55.880;37.542;2023-11-18T01:29:15;0.93;;;0.10;;
70951;SDS011;69214;55.880;37.542;2023-11-18T01:31:41;0.28;;;0.08;;
70951;SDS011;69214;55.880;37.542;2023-11-18T01:34:07;0.93;;;0.20;;
70951;SDS011;69214;55.880;37.542;2023-11-18T01:36:37;0.68;;;0.10;;
70951;SDS011;69214;55.880;37.542;2023-11-18T01:39:03;0.43;;;0.05;;
70951;SDS011;69214;55.880;37.542;2023-11-18T01:41:29;0.57;;;0.00;;
70951;SDS011;69214;55.880;37.542;2023-11-18T01:43:58;0.73;;;0.10;;
70951;SDS011;69214;55.880;37.542;2023-11-18T01:46:24;0.20;;;0.10;;
70951;SDS011;69214;55.880;37.542;2023-11-18T01:48:51;1.05;;;0.15;;
70951;SDS011;69214;55.880;37.542;2023-11-18T01:51:18;0.60;;;0.10;;
70951;SDS011;69214;55.880;37.542;2023-11-18T01:53:45;0.43;;;0.10;;
70951;SDS011;69214;55.880;37.542;2023-11-18T01:56:13;1.25;;;0.13;;
70951;SDS011;69214;55.880;37.542;2023-11-18T01:58:40;0.45;;;0.10;;
70951;SDS011;69214;55.880;37.542;2023-11-18T02:01:06;0.75;;;0.20;;
70951;SDS011;69214;55.880;37.542;2023-11-18T02:03:35;0.20;;;0.00;;
70951;SDS011;69214;55.880;37.542;2023-11-18T02:06:02;0.53;;;0.10;;
70951;SDS011;69214;55.880;37.542;2023-11-18T02:08:31;0.17;;;0.00;;
70951;SDS011;69214;55.880;37.542;2023-11-18T02:11:44;0.45;;;0.10;;
70951;SDS011;69214;55.880;37.542;2023-11-18T02:14:11;0.63;;;0.20;;
70951;SDS011;69214;55.880;37.542;2023-11-18T02:16:40;0.13;;;0.00;;
70951;SDS011;69214;55.880;37.542;2023-11-18T02:19:08;0.13;;;0.00;;
70951;SDS011;69214;55.880;37.542;2023-11-18T02:21:44;0.45;;;0.00;;
70951;SDS011;69214;55.880;37.542;2023-11-18T02:24:11;0.00;;;0.00;;
70951;SDS011;69214;55.880;37.542;2023-11-18T02:26:50;0.15;;;0.00;;
70951;SDS011;69214;55.880;37.542;2023-11-18T02:29:16;0.10;;;0.00;;
70951;SDS011;69214;55.880;37.542;2023-11-18T02:31:41;0.43;;;0.10;;
70951;SDS011;69214;55.880;37.542;2023-11-18T02:34:16;0.10;;;0.00;;
70951;SDS011;69214;55.880;37.542;2023-11-18T02:36:48;0.10;;;0.00;;
70951;SDS011;69214;55.880;37.542;2023-11-18T02:39:22;1.27;;;0.30;;
70951;SDS011;69214;55.880;37.542;2023-11-18T02:41:54;0.43;;;0.20;;
70951;SDS011;69214;55.880;37.542;2023-11-18T02:44:23;1.27;;;0.10;;
70951;SDS011;69214;55.880;37.542;2023-11-18T02:46:51;2.47;;;0.20;;
70951;SDS011;69214;55.880;37.542;2023-11-18T02:49:17;0.50;;;0.10;;
70951;SDS011;69214;55.880;37.542;2023-11-18T02:51:45;1.17;;;0.10;;
70951;SDS011;69214;55.880;37.542;2023-11-18T02:54:13;0.10;;;0.00;;
70951;SDS011;69214;55.880;37.542;2023-11-18T02:56:39;0.55;;;0.20;;
70951;SDS011;69214;55.880;37.542;2023-11-18T02:59:05;0.50;;;0.08;;
70951;SDS011;69214;55.880;37.542;2023-11-18T03:01:32;0.40;;;0.10;;
70951;SDS011;69214;55.880;37.542;2023-11-18T03:03:59;0.43;;;0.07;;
70951;SDS011;69214;55.880;37.542;2023-11-18T03:06:30;1.85;;;0.00;;
70951;SDS011;69214;55.880;37.542;2023-11-18T03:08:57;0.52;;;0.10;;
70951;SDS011;69214;55.880;37.542;2023-11-18T03:11:23;0.63;;;0.10;;
70951;SDS011;69214;55.880;37.542;2023-11-18T03:13:49;0.50;;;0.13;;
70951;SDS011;69214;55.880;37.542;2023-11-18T03:16:15;0.23;;;0.10;;
70951;SDS011;69214;55.880;37.542;2023-11-18T03:18:42;0.47;;;0.00;;
70951;SDS011;69214;55.880;37.542;2023-11-18T03:21:13;0.00;;;0.00;;
70951;SDS011;69214;55.880;37.542;2023-11-18T03:23:40;0.10;;;0.10;;
70951;SDS011;69214;55.880;37.542;2023-11-18T03:26:07;0.83;;;0.10;;
70951;SDS011;69214;55.880;37.542;2023-11-18T03:28:34;1.75;;;0.15;;
70951;SDS011;69214;55.880;37.542;2023-11-18T03:31:02;0.10;;;0.00;;
70951;SDS011;69214;55.880;37.542;2023-11-18T03:33:32;0.60;;;0.10;;
70951;SDS011;69214;55.880;37.542;2023-11-18T03:35:58;0.55;;;0.00;;
70951;SDS011;69214;55.880;37.542;2023-11-18T03:38:24;1.03;;;0.20;;
70951;SDS011;69214;55.880;37.542;2023-11-18T03:40:50;0.60;;;0.00;;
70951;SDS011;69214;55.880;37.542;2023-11-18T03:43:18;0.63;;;0.20;;
70951;SDS011;69214;55.880;37.542;2023-11-18T03:45:45;0.00;;;0.00;;
70951;SDS011;69214;55.880;37.542;2023-11-18T03:48:11;0.60;;;0.10;;
70951;SDS011;69214;55.880;37.542;2023-11-18T03:50:41;0.20;;;0.00;;
70951;SDS011;69214;55.880;37.542;2023-11-18T03:53:10;0.47;;;0.00;;
70951;SDS011;69214;55.880;37.542;2023-11-18T03:55:36;0.52;;;0.10;;
70951;SDS011;69214;55.880;37.542;2023-11-18T03:58:02;0.47;;;0.10;;
70951;SDS011;69214;55.880;37.542;2023-11-18T04:00:29;0.30;;;0.00;;
70951;SDS011;69214;55.880;37.542;2023-11-18T04:02:56;0.00;;;0.00;;
70951;SDS011;69214;55.880;37.542;2023-11-18T04:05:22;0.80;;;0.13;;
70951;SDS011;69214;55.880;37.542;2023-11-18T04:07:48;0.00;;;0.00;;
70951;SDS011;69214;55.880;37.542;2023-11-18T04:10:15;0.22;;;0.00;;
70951;SDS011;69214;55.880;37.542;2023-11-18T04:12:43;0.27;;;0.10;;
70951;SDS011;69214;55.880;37.542;2023-11-18T04:15:12;0.28;;;0.00;;
70951;SDS011;69214;55.880;37.542;2023-11-18T04:17:38;0.08;;;0.00;;
70951;SDS011;69214;55.880;37.542;2023-11-18T04:20:06;1.17;;;0.10;;
70951;SDS011;69214;55.880;37.542;2023-11-18T04:22:38;0.80;;;0.00;;
70951;SDS011;69214;55.880;37.542;2023-11-18T04:25:05;1.50;;;0.10;;
70951;SDS011;69214;55.880;37.542;2023-11-18T04:27:31;0.73;;;0.10;;
70951;SDS011;69214;55.880;37.542;2023-11-18T04:29:57;0.00;;;0.00;;
70951;SDS011;69214;55.880;37.542;2023-11-18T04:32:23;0.10;;;0.00;;
70951;SDS011;69214;55.880;37.542;2023-11-18T04:34:49;0.10;;;0.00;;
70951;SDS011;69214;55.880;37.542;2023-11-18T04:37:16;0.28;;;0.08;;
70951;SDS011;69214;55.880;37.542;2023-11-18T04:39:43;0.00;;;0.00;;
70951;SDS011;69214;55.880;37.542;2023-11-18T04:42:09;0.60;;;0.00;;
70951;SDS011;69214;55.880;37.542;2023-11-18T04:44:35;0.00;;;0.00;;
70951;SDS011;69214;55.880;37.542;2023-11-18T04:47:01;0.00;;;0.00;;
70951;SDS011;69214;55.880;37.542;2023-11-18T04:49:27;0.10;;;0.10;;
70951;SDS011;69214;55.880;37.542;2023-11-18T04:51:53;0.47;;;0.17;;
70951;SDS011;69214;55.880;37.542;2023-11-18T04:54:19;0.50;;;0.10;;
70951;SDS011;69214;55.880;37.542;2023-11-18T04:56:45;0.47;;;0.00;;
70951;SDS011;69214;55.880;37.542;2023-11-18T04:59:11;0.00;;;0.00;;
70951;SDS011;69214;55.880;37.542;2023-11-18T05:01:37;0.30;;;0.10;;
70951;SDS011;69214;55.880;37.542;2023-11-18T05:04:03;0.20;;;0.10;;
70951;SDS011;69214;55.880;37.542;2023-11-18T05:06:29;0.55;;;0.10;;
70951;SDS011;69214;55.880;37.542;2023-11-18T05:08:55;2.37;;;0.10;;
70951;SDS011;69214;55.880;37.542;2023-11-18T05:11:20;0.05;;;0.00;;
70951;SDS011;69214;55.880;37.542;2023-11-18T05:13:46;0.55;;;0.15;;
70951;SDS011;69214;55.880;37.542;2023-11-18T05:16:12;0.00;;;0.00;;
70951;SDS011;69214;55.880;37.542;2023-11-18T05:18:38;1.15;;;0.00;;
70951;SDS011;69214;55.880;37.542;2023-11-18T05:21:04;0.05;;;0.00;;
70951;SDS011;69214;55.880;37.542;2023-11-18T05:23:31;0.10;;;0.00;;
70951;SDS011;69214;55.880;37.542;2023-11-18T05:26:00;0.28;;;0.10;;
70951;SDS011;69214;55.880;37.542;2023-11-18T05:28:26;0.20;;;0.00;;
70951;SDS011;69214;55.880;37.542;2023-11-18T05:30:52;0.30;;;0.00;;
70951;SDS011;69214;55.880;37.542;2023-11-18T05:33:23;0.05;;;0.00;;
70951;SDS011;69214;55.880;37.542;2023-11-18T05:35:49;0.00;;;0.00;;
70951;SDS011;69214;55.880;37.542;2023-11-18T05:38:18;0.00;;;0.00;;
70951;SDS011;69214;55.880;37.542;2023-11-18T05:40:47;0.00;;;0.00;;
70951;SDS011;69214;55.880;37.542;2023-11-18T05:43:25;0.68;;;0.10;;
70951;SDS011;69214;55.880;37.542;2023-11-18T05:46:01;0.15;;;0.00;;
70951;SDS011;69214;55.880;37.542;2023-11-18T05:48:50;0.10;;;0.00;;
70951;SDS011;69214;55.880;37.542;2023-11-18T05:51:20;0.22;;;0.10;;
70951;SDS011;69214;55.880;37.542;2023-11-18T05:53:51;0.00;;;0.00;;
70951;SDS011;69214;55.880;37.542;2023-11-18T05:56:18;0.30;;;0.00;;
70951;SDS011;69214;55.880;37.542;2023-11-18T05:58:48;0.95;;;0.10;;
70951;SDS011;69214;55.880;37.542;2023-11-18T06:01:14;1.13;;;0.30;;
70951;SDS011;69214;55.880;37.542;2023-11-18T06:03:42;1.80;;;0.38;;
70951;SDS011;69214;55.880;37.542;2023-11-18T06:06:08;2.05;;;0.30;;
70951;SDS011;69214;55.880;37.542;2023-11-18T06:08:36;3.38;;;0.60;;
70951;SDS011;69214;55.880;37.542;2023-11-18T06:11:07;2.83;;;0.67;;
70951;SDS011;69214;55.880;37.542;2023-11-18T06:16:08;5.05;;;1.33;;
70951;SDS011;69214;55.880;37.542;2023-11-18T06:18:40;5.75;;;1.58;;
70951;SDS011;69214;55.880;37.542;2023-11-18T06:21:09;8.60;;;2.05;;
70951;SDS011;69214;55.880;37.542;2023-11-18T06:23:36;5.70;;;1.90;;
70951;SDS011;69214;55.880;37.542;2023-11-18T06:26:02;7.20;;;1.98;;
70951;SDS011;69214;55.880;37.542;2023-11-18T06:28:30;13.25;;;2.83;;
70951;SDS011;69214;55.880;37.542;2023-11-18T06:30:56;15.57;;;3.25;;
70951;SDS011;69214;55.880;37.542;2023-11-18T06:33:22;9.33;;;2.50;;
70951;SDS011;69214;55.880;37.542;2023-11-18T06:35:48;9.85;;;2.55;;
70951;SDS011;69214;55.880;37.542;2023-11-18T06:38:15;8.70;;;2.65;;
70951;SDS011;69214;55.880;37.542;2023-11-18T06:40:44;6.85;;;2.10;;
70951;SDS011;69214;55.880;37.542;2023-11-18T06:43:11;10.07;;;3.00;;
70951;SDS011;69214;55.880;37.542;2023-11-18T06:45:42;11.57;;;2.92;;
70951;SDS011;69214;55.880;37.542;2023-11-18T06:48:08;9.50;;;3.10;;
70951;SDS011;69214;55.880;37.542;2023-11-18T06:50:34;9.18;;;2.50;;
70951;SDS011;69214;55.880;37.542;2023-11-18T06:53:01;7.13;;;2.70;;
70951;SDS011;69214;55.880;37.542;2023-11-18T06:55:26;8.37;;;2.20;;
70951;SDS011;69214;55.880;37.542;2023-11-18T06:57:52;9.05;;;2.72;;
70951;SDS011;69214;55.880;37.542;2023-11-18T07:00:21;10.10;;;2.58;;
70951;SDS011;69214;55.880;37.542;2023-11-18T07:02:47;10.35;;;2.80;;
70951;SDS011;69214;55.880;37.542;2023-11-18T07:05:13;9.83;;;3.30;;
70951;SDS011;69214;55.880;37.542;2023-11-18T07:07:40;9.00;;;2.92;;
70951;SDS011;69214;55.880;37.542;2023-11-18T07:10:09;9.98;;;2.97;;
70951;SDS011;69214;55.880;37.542;2023-11-18T07:12:38;7.57;;;2.60;;
70951;SDS011;69214;55.880;37.542;2023-11-18T07:15:06;11.07;;;2.97;;
70951;SDS011;69214;55.880;37.542;2023-11-18T07:17:32;7.97;;;2.73;;
70951;SDS011;69214;55.880;37.542;2023-11-18T07:20:00;12.23;;;3.13;;
70951;SDS011;69214;55.880;37.542;2023-11-18T07:22:26;8.18;;;2.90;;
70951;SDS011;69214;55.880;37.542;2023-11-18T07:24:52;11.18;;;2.50;;
70951;SDS011;69214;55.880;37.542;2023-11-18T07:27:17;7.70;;;2.90;;
70951;SDS011;69214;55.880;37.542;2023-11-18T07:29:43;10.75;;;3.65;;
70951;SDS011;69214;55.880;37.542;2023-11-18T07:32:10;9.90;;;3.13;;
70951;SDS011;69214;55.880;37.542;2023-11-18T07:34:36;7.60;;;2.50;;
70951;SDS011;69214;55.880;37.542;2023-11-18T07:37:03;7.65;;;2.70;;
70951;SDS011;69214;55.880;37.542;2023-11-18T07:39:29;10.82;;;3.15;;
70951;SDS011;69214;55.880;37.542;2023-11-18T07:42:10;8.07;;;2.80;;
70951;SDS011;69214;55.880;37.542;2023-11-18T07:44:37;7.83;;;2.73;;
70951;SDS011;69214;55.880;37.542;2023-11-18T07:47:06;10.68;;;3.45;;
70951;SDS011;69214;55.880;37.542;2023-11-18T07:49:33;8.40;;;2.70;;
70951;SDS011;69214;55.880;37.542;2023-11-18T07:52:03;12.75;;;2.75;;
70951;SDS011;69214;55.880;37.542;2023-11-18T07:54:29;8.02;;;2.30;;
70951;SDS011;69214;55.880;37.542;2023-11-18T07:56:55;8.90;;;2.50;;
70951;SDS011;69214;55.880;37.542;2023-11-18T07:59:21;8.23;;;2.15;;
70951;SDS011;69214;55.880;37.542;2023-11-18T08:01:47;9.55;;;2.25;;
70951;SDS011;69214;55.880;37.542;2023-11-18T08:04:14;9.43;;;2.20;;
70951;SDS011;69214;55.880;37.542;2023-11-18T08:06:40;6.57;;;1.97;;
70951;SDS011;69214;55.880;37.542;2023-11-18T08:09:06;5.10;;;1.30;;
70951;SDS011;69214;55.880;37.542;2023-11-18T08:11:36;9.63;;;1.30;;
70951;SDS011;69214;55.880;37.542;2023-11-18T08:14:02;6.10;;;1.47;;
70951;SDS011;69214;55.880;37.542;2023-11-18T08:16:28;4.22;;;0.85;;
70951;SDS011;69214;55.880;37.542;2023-11-18T08:18:55;4.03;;;0.68;;
70951;SDS011;69214;55.880;37.542;2023-11-18T08:21:21;4.57;;;0.63;;
70951;SDS011;69214;55.880;37.542;2023-11-18T08:23:47;2.13;;;0.63;;
70951;SDS011;69214;55.880;37.542;2023-11-18T08:26:13;3.53;;;0.50;;
70951;SDS011;69214;55.880;37.542;2023-11-18T08:28:39;2.38;;;0.43;;
70951;SDS011;69214;55.880;37.542;2023-11-18T08:31:06;0.77;;;0.15;;
70951;SDS011;69214;55.880;37.542;2023-11-18T08:33:32;1.37;;;0.20;;
70951;SDS011;69214;55.880;37.542;2023-11-18T08:35:59;1.23;;;0.20;;
70951;SDS011;69214;55.880;37.542;2023-11-18T08:38:27;1.55;;;0.10;;
70951;SDS011;69214;55.880;37.542;2023-11-18T08:40:53;0.73;;;0.10;;
70951;SDS011;69214;55.880;37.542;2023-11-18T08:43:20;1.38;;;0.30;;
70951;SDS011;69214;55.880;37.542;2023-11-18T08:45:46;1.10;;;0.10;;
70951;SDS011;69214;55.880;37.542;2023-11-18T08:48:12;0.80;;;0.20;;
70951;SDS011;69214;55.880;37.542;2023-11-18T08:50:39;1.00;;;0.20;;
70951;SDS011;69214;55.880;37.542;2023-11-18T08:53:08;0.90;;;0.20;;
70951;SDS011;69214;55.880;37.542;2023-11-18T08:55:35;1.40;;;0.13;;
70951;SDS011;69214;55.880;37.542;2023-11-18T08:58:05;0.57;;;0.00;;
70951;SDS011;69214;55.880;37.542;2023-11-18T09:00:41;0.70;;;0.30;;
70951;SDS011;69214;55.880;37.542;2023-11-18T09:03:14;0.77;;;0.10;;
70951;SDS011;69214;55.880;37.542;2023-11-18T09:08:27;0.60;;;0.15;;
70951;SDS011;69214;55.880;37.542;2023-11-18T09:10:58;0.47;;;0.00;;
70951;SDS011;69214;55.880;37.542;2023-11-18T09:13:25;1.42;;;0.10;;
70951;SDS011;69214;55.880;37.542;2023-11-18T09:15:56;0.90;;;0.10;;
70951;SDS011;69214;55.880;37.542;2023-11-18T09:18:26;0.52;;;0.00;;
70951;SDS011;69214;55.880;37.542;2023-11-18T09:21:04;0.70;;;0.10;;
70951;SDS011;69214;55.880;37.542;2023-11-18T09:23:33;1.07;;;0.10;;
70951;SDS011;69214;55.880;37.542;2023-11-18T09:26:01;0.38;;;0.05;;
70951;SDS011;69214;55.880;37.542;2023-11-18T09:28:28;3.35;;;0.25;;
70951;SDS011;69214;55.880;37.542;2023-11-18T09:30:55;0.73;;;0.10;;
70951;SDS011;69214;55.880;37.542;2023-11-18T09:33:29;2.08;;;0.30;;
70951;SDS011;69214;55.880;37.542;2023-11-18T09:36:00;0.60;;;0.00;;
70951;SDS011;69214;55.880;37.542;2023-11-18T09:38:32;0.22;;;0.00;;
70951;SDS011;69214;55.880;37.542;2023-11-18T09:41:02;0.28;;;0.00;;
70951;SDS011;69214;55.880;37.542;2023-11-18T09:43:37;0.40;;;0.00;;
70951;SDS011;69214;55.880;37.542;2023-11-18T09:46:27;1.08;;;0.10;;
70951;SDS011;69214;55.880;37.542;2023-11-18T09:51:43;1.08;;;0.20;;
70951;SDS011;69214;55.880;37.542;2023-11-18T10:00:01;0.05;;;0.00;;
70951;SDS011;69214;55.880;37.542;2023-11-18T10:02:53;0.57;;;0.20;;
70951;SDS011;69214;55.880;37.542;2023-11-18T10:05:22;1.25;;;0.15;;
70951;SDS011;69214;55.880;37.542;2023-11-18T10:07:52;0.40;;;0.08;;
70951;SDS011;69214;55.880;37.542;2023-11-18T10:10:18;1.13;;;0.30;;
70951;SDS011;69214;55.880;37.542;2023-11-18T10:12:47;1.10;;;0.10;;
70951;SDS011;69214;55.880;37.542;2023-11-18T10:15:24;0.40;;;0.00;;
70951;SDS011;69214;55.880;37.542;2023-11-18T10:17:51;0.10;;;0.00;;
70951;SDS011;69214;55.880;37.542;2023-11-18T10:23:14;0.50;;;0.10;;
70951;SDS011;69214;55.880;37.542;2023-11-18T10:25:48;1.25;;;0.22;;
70951;SDS011;69214;55.880;37.542;2023-11-18T10:28:24;0.70;;;0.10;;
70951;SDS011;69214;55.880;37.542;2023-11-18T10:30:56;0.80;;;0.10;;
70951;SDS011;69214;55.880;37.542;2023-11-18T10:33:26;0.30;;;0.10;;
70951;SDS011;69214;55.880;37.542;2023-11-18T10:35:56;1.58;;;0.10;;
70951;SDS011;69214;55.880;37.542;2023-11-18T10:38:23;0.82;;;0.00;;
70951;SDS011;69214;55.880;37.542;2023-11-18T10:40:53;1.00;;;0.00;;
70951;SDS011;69214;55.880;37.542;2023-11-18T10:43:22;0.82;;;0.13;;
70951;SDS011;69214;55.880;37.542;2023-11-18T10:46:15;1.00;;;0.10;;
70951;SDS011;69214;55.880;37.542;2023-11-18T10:48:42;1.95;;;0.32;;
70951;SDS011;69214;55.880;37.542;2023-11-18T10:51:09;1.52;;;0.30;;
70951;SDS011;69214;55.880;37.542;2023-11-18T10:53:40;2.37;;;0.40;;
70951;SDS011;69214;55.880;37.542;2023-11-18T10:56:21;1.58;;;0.20;;
70951;SDS011;69214;55.880;37.542;2023-11-18T10:58:58;1.58;;;0.30;;
70951;SDS011;69214;55.880;37.542;2023-11-18T11:01:32;0.98;;;0.10;;
70951;SDS011;69214;55.880;37.542;2023-11-18T11:03:58;1.58;;;0.25;;
70951;SDS011;69214;55.880;37.542;2023-11-18T11:06:24;0.20;;;0.00;;
70951;SDS011;69214;55.880;37.542;2023-11-18T11:08:52;0.82;;;0.17;;
70951;SDS011;69214;55.880;37.542;2023-11-18T11:11:19;1.05;;;0.30;;
70951;SDS011;69214;55.880;37.542;2023-11-18T11:13:55;1.17;;;0.20;;
70951;SDS011;69214;55.880;37.542;2023-11-18T11:16:23;2.08;;;0.15;;
70951;SDS011;69214;55.880;37.542;2023-11-18T11:18:59;0.40;;;0.10;;
70951;SDS011;69214;55.880;37.542;2023-11-18T11:21:35;0.90;;;0.10;;
70951;SDS011;69214;55.880;37.542;2023-11-18T11:24:19;0.55;;;0.15;;
70951;SDS011;69214;55.880;37.542;2023-11-18T11:27:04;1.63;;;0.10;;
70951;SDS011;69214;55.880;37.542;2023-11-18T11:29:45;0.60;;;0.10;;
70951;SDS011;69214;55.880;37.542;2023-11-18T11:32:26;0.53;;;0.00;;
70951;SDS011;69214;55.880;37.542;2023-11-18T11:35:01;1.80;;;0.20;;
70951;SDS011;69214;55.880;37.542;2023-11-18T11:37:33;0.90;;;0.15;;
70951;SDS011;69214;55.880;37.542;2023-11-18T11:40:02;0.22;;;0.00;;
70951;SDS011;69214;55.880;37.542;2023-11-18T11:42:36;0.68;;;0.15;;
70951;SDS011;69214;55.880;37.542;2023-11-18T11:45:05;1.80;;;0.30;;
70951;SDS011;69214;55.880;37.542;2023-11-18T11:47:48;1.55;;;0.32;;
70951;SDS011;69214;55.880;37.542;2023-11-18T11:50:21;0.47;;;0.10;;
70951;SDS011;69214;55.880;37.542;2023-11-18T11:53:04;1.88;;;0.28;;
70951;SDS011;69214;55.880;37.542;2023-11-18T11:58:30;0.70;;;0.10;;
70951;SDS011;69214;55.880;37.542;2023-11-18T12:03:49;1.77;;;0.30;;
70951;SDS011;69214;55.880;37.542;2023-11-18T12:06:26;2.28;;;0.47;;
70951;SDS011;69214;55.880;37.542;2023-11-18T12:08:53;1.48;;;0.40;;
70951;SDS011;69214;55.880;37.542;2023-11-18T12:11:22;1.77;;;0.37;;
70951;SDS011;69214;55.880;37.542;2023-11-18T12:14:01;4.43;;;0.63;;
70951;SDS011;69214;55.880;37.542;2023-11-18T12:17:00;2.00;;;0.20;;
70951;SDS011;69214;55.880;37.542;2023-11-18T12:19:39;3.55;;;0.20;;
70951;SDS011;69214;55.880;37.542;2023-11-18T12:22:16;1.05;;;0.20;;
70951;SDS011;69214;55.880;37.542;2023-11-18T12:24:44;2.07;;;0.30;;
70951;SDS011;69214;55.880;37.542;2023-11-18T12:27:12;2.42;;;0.10;;
70951;SDS011;69214;55.880;37.542;2023-11-18T12:29:42;1.35;;;0.20;;
70951;SDS011;69214;55.880;37.542;2023-11-18T12:32:10;4.32;;;0.20;;
70951;SDS011;69214;55.880;37.542;2023-11-18T12:35:00;1.85;;;0.38;;
70951;SDS011;69214;55.880;37.542;2023-11-18T12:37:38;1.37;;;0.30;;
70951;SDS011;69214;55.880;37.542;2023-11-18T12:43:16;1.63;;;0.20;;
70951;SDS011;69214;55.880;37.542;2023-11-18T12:48:45;2.47;;;0.30;;
70951;SDS011;69214;55.880;37.542;2023-11-18T12:51:17;1.60;;;0.30;;
70951;SDS011;69214;55.880;37.542;2023-11-18T12:53:49;1.35;;;0.30;;
70951;SDS011;69214;55.880;37.542;2023-11-18T12:56:17;0.77;;;0.28;;
70951;SDS011;69214;55.880;37.542;2023-11-18T12:58:45;1.08;;;0.10;;
70951;SDS011;69214;55.880;37.542;2023-11-18T13:01:13;1.85;;;0.22;;
70951;SDS011;69214;55.880;37.542;2023-11-18T13:03:40;1.23;;;0.20;;
70951;SDS011;69214;55.880;37.542;2023-11-18T13:06:08;0.82;;;0.10;;
70951;SDS011;69214;55.880;37.542;2023-11-18T13:08:34;2.50;;;0.63;;
70951;SDS011;69214;55.880;37.542;2023-11-18T13:11:02;1.45;;;0.10;;
70951;SDS011;69214;55.880;37.542;2023-11-18T13:13:33;0.90;;;0.20;;
70951;SDS011;69214;55.880;37.542;2023-11-18T13:16:01;0.83;;;0.10;;
70951;SDS011;69214;55.880;37.542;2023-11-18T13:18:35;2.80;;;0.20;;
70951;SDS011;69214;55.880;37.542;2023-11-18T13:21:07;1.08;;;0.30;;
70951;SDS011;69214;55.880;37.542;2023-11-18T13:23:32;1.23;;;0.20;;
70951;SDS011;69214;55.880;37.542;2023-11-18T13:25:58;1.40;;;0.50;;
70951;SDS011;69214;55.880;37.542;2023-11-18T13:28:31;1.10;;;0.10;;
70951;SDS011;69214;55.880;37.542;2023-11-18T13:30:57;1.33;;;0.30;;
70951;SDS011;69214;55.880;37.542;2023-11-18T13:33:23;1.02;;;0.28;;
70951;SDS011;69214;55.880;37.542;2023-11-18T13:35:49;1.27;;;0.10;;
70951;SDS011;69214;55.880;37.542;2023-11-18T13:38:15;1.48;;;0.20;;
70951;SDS011;69214;55.880;37.542;2023-11-18T13:40:44;0.80;;;0.10;;
70951;SDS011;69214;55.880;37.542;2023-11-18T13:43:12;0.55;;;0.10;;
70951;SDS011;69214;55.880;37.542;2023-11-18T13:45:38;1.10;;;0.10;;
70951;SDS011;69214;55.880;37.542;2023-11-18T13:48:05;0.97;;;0.30;;
70951;SDS011;69214;55.880;37.542;2023-11-18T13:50:35;1.90;;;0.10;;
70951;SDS011;69214;55.880;37.542;2023-11-18T13:53:03;3.03;;;0.30;;
70951;SDS011;69214;55.880;37.542;2023-11-18T13:55:31;0.95;;;0.17;;
70951;SDS011;69214;55.880;37.542;2023-11-18T13:57:58;0.45;;;0.10;;
70951;SDS011;69214;55.880;37.542;2023-11-18T14:00:25;0.77;;;0.23;;
70951;SDS011;69214;55.880;37.542;2023-11-18T14:02:55;2.33;;;0.30;;
70951;SDS011;69214;55.880;37.542;2023-11-18T14:05:22;0.68;;;0.13;;
70951;SDS011;69214;55.880;37.542;2023-11-18T14:07:51;1.02;;;0.30;;
70951;SDS011;69214;55.880;37.542;2023-11-18T14:10:21;1.13;;;0.20;;
70951;SDS011;69214;55.880;37.542;2023-11-18T14:13:03;0.23;;;0.00;;
70951;SDS011;69214;55.880;37.542;2023-11-18T14:15:37;2.25;;;0.35;;
70951;SDS011;69214;55.880;37.542;2023-11-18T14:18:04;1.38;;;0.10;;
70951;SDS011;69214;55.880;37.542;2023-11-18T14:20:33;2.28;;;0.20;;
70951;SDS011;69214;55.880;37.542;2023-11-18T14:23:01;1.52;;;0.43;;
70951;SDS011;69214;55.880;37.542;2023-11-18T14:25:31;0.90;;;0.10;;
70951;SDS011;69214;55.880;37.542;2023-11-18T14:27:59;2.08;;;0.22;;
70951;SDS011;69214;55.880;37.542;2023-11-18T14:30:25;2.05;;;0.50;;
70951;SDS011;69214;55.880;37.542;2023-11-18T14:32:52;1.40;;;0.28;;
70951;SDS011;69214;55.880;37.542;2023-11-18T14:35:18;5.82;;;0.50;;
70951;SDS011;69214;55.880;37.542;2023-11-18T14:37:44;1.43;;;0.10;;
70951;SDS011;69214;55.880;37.542;2023-11-18T14:40:11;0.63;;;0.10;;
70951;SDS011;69214;55.880;37.542;2023-11-18T14:42:43;1.15;;;0.38;;
70951;SDS011;69214;55.880;37.542;2023-11-18T14:45:12;2.08;;;0.40;;
70951;SDS011;69214;55.880;37.542;2023-11-18T14:47:42;3.72;;;0.70;;
70951;SDS011;69214;55.880;37.542;2023-11-18T14:50:13;1.20;;;0.40;;
70951;SDS011;69214;55.880;37.542;2023-11-18T14:52:47;0.85;;;0.20;;
70951;SDS011;69214;55.880;37.542;2023-11-18T14:55:16;2.55;;;0.90;;
70951;SDS011;69214;55.880;37.542;2023-11-18T14:57:45;1.08;;;0.30;;
70951;SDS011;69214;55.880;37.542;2023-11-18T15:00:12;2.05;;;0.30;;
70951;SDS011;69214;55.880;37.542;2023-11-18T15:02:48;1.60;;;0.50;;
70951;SDS011;69214;55.880;37.542;2023-11-18T15:05:15;0.55;;;0.00;;
70951;SDS011;69214;55.880;37.542;2023-11-18T15:07:48;3.33;;;0.50;;
70951;SDS011;69214;55.880;37.542;2023-11-18T15:10:16;1.40;;;0.10;;
70951;SDS011;69214;55.880;37.542;2023-11-18T15:12:48;2.53;;;0.43;;